sensor_id;sensor_type;location;lat;lon;timestamp;P1;durP1;ratioP1;P2;durP2;ratioP2
20040;SDS011;10181;48.072;9.884;2023-06-22T00:00:54;14.30;;;13.50;;
20040;SDS011;10181;48.072;9.884;2023-06-22T00:03:21;12.77;;;11.95;;
20040;SDS011;10181;48.072;9.884;2023-06-22T00:05:48;10.52;;;9.80;;
20040;SDS011;10181;48.072;9.884;2023-06-22T00:08:15;10.38;;;9.73;;
20040;SDS011;10181;48.072;9.884;2023-06-22T00:10:41;10.02;;;9.30;;
20040;SDS011;10181;48.072;9.884;2023-06-22T00:13:07;9.75;;;9.05;;
20040;SDS011;10181;48.072;9.884;2023-06-22T00:15:34;10.10;;;9.60;;
20040;SDS011;10181;48.072;9.884;2023-06-22T00:18:01;10.07;;;9.38;;
20040;SDS011;10181;48.072;9.884;2023-06-22T00:20:27;10.63;;;9.57;;
20040;SDS011;10181;48.072;9.884;2023-06-22T00:22:57;9.05;;;8.55;;
20040;SDS011;10181;48.072;9.884;2023-06-22T00:25:23;9.80;;;9.18;;
20040;SDS011;10181;48.072;9.884;2023-06-22T00:27:49;8.90;;;8.35;;
20040;SDS011;10181;48.072;9.884;2023-06-22T00:30:15;11.32;;;8.45;;
20040;SDS011;10181;48.072;9.884;2023-06-22T00:32:42;9.15;;;8.45;;
20040;SDS011;10181;48.072;9.884;2023-06-22T00:35:08;8.45;;;8.05;;
20040;SDS011;10181;48.072;9.884;2023-06-22T00:37:35;9.60;;;8.95;;
20040;SDS011;10181;48.072;9.884;2023-06-22T00:40:01;7.88;;;7.38;;
20040;SDS011;10181;48.072;9.884;2023-06-22T00:42:29;8.45;;;7.95;;
20040;SDS011;10181;48.072;9.884;2023-06-22T00:44:55;7.70;;;7.40;;
20040;SDS011;10181;48.072;9.884;2023-06-22T00:47:20;8.60;;;8.18;;
20040;SDS011;10181;48.072;9.884;2023-06-22T00:49:47;9.05;;;8.65;;
20040;SDS011;10181;48.072;9.884;2023-06-22T00:52:16;8.82;;;8.30;;
20040;SDS011;10181;48.072;9.884;2023-06-22T00:54:46;8.73;;;7.97;;
20040;SDS011;10181;48.072;9.884;2023-06-22T00:57:15;9.43;;;8.50;;
20040;SDS011;10181;48.072;9.884;2023-06-22T00:59:42;8.45;;;7.95;;
20040;SDS011;10181;48.072;9.884;2023-06-22T01:02:09;8.52;;;8.02;;
20040;SDS011;10181;48.072;9.884;2023-06-22T01:04:35;9.55;;;8.90;;
20040;SDS011;10181;48.072;9.884;2023-06-22T01:09:31;7.63;;;7.22;;
20040;SDS011;10181;48.072;9.884;2023-06-22T01:12:02;7.85;;;7.32;;
20040;SDS011;10181;48.072;9.884;2023-06-22T01:17:12;6.70;;;6.30;;
20040;SDS011;10181;48.072;9.884;2023-06-22T01:19:45;7.50;;;7.00;;
20040;SDS011;10181;48.072;9.884;2023-06-22T01:22:17;7.80;;;7.10;;
20040;SDS011;10181;48.072;9.884;2023-06-22T01:30:12;8.60;;;8.05;;
20040;SDS011;10181;48.072;9.884;2023-06-22T01:32:41;8.48;;;7.97;;
20040;SDS011;10181;48.072;9.884;2023-06-22T01:35:08;10.05;;;9.25;;
20040;SDS011;10181;48.072;9.884;2023-06-22T01:37:35;9.05;;;8.38;;
20040;SDS011;10181;48.072;9.884;2023-06-22T01:40:04;10.53;;;9.83;;
20040;SDS011;10181;48.072;9.884;2023-06-22T01:42:31;11.13;;;10.52;;
20040;SDS011;10181;48.072;9.884;2023-06-22T01:44:57;12.53;;;11.93;;
20040;SDS011;10181;48.072;9.884;2023-06-22T01:47:24;14.77;;;14.07;;
20040;SDS011;10181;48.072;9.884;2023-06-22T01:49:50;13.93;;;13.33;;
20040;SDS011;10181;48.072;9.884;2023-06-22T01:52:17;14.63;;;13.88;;
20040;SDS011;10181;48.072;9.884;2023-06-22T01:54:43;17.30;;;16.27;;
20040;SDS011;10181;48.072;9.884;2023-06-22T01:57:09;18.55;;;17.63;;
20040;SDS011;10181;48.072;9.884;2023-06-22T01:59:53;16.30;;;15.50;;
20040;SDS011;10181;48.072;9.884;2023-06-22T02:02:30;18.13;;;17.30;;
20040;SDS011;10181;48.072;9.884;2023-06-22T02:05:03;18.65;;;17.75;;
20040;SDS011;10181;48.072;9.884;2023-06-22T02:07:33;17.13;;;16.25;;
20040;SDS011;10181;48.072;9.884;2023-06-22T02:10:02;16.80;;;16.03;;
20040;SDS011;10181;48.072;9.884;2023-06-22T02:12:31;15.75;;;14.75;;
20040;SDS011;10181;48.072;9.884;2023-06-22T02:14:58;15.13;;;14.43;;
20040;SDS011;10181;48.072;9.884;2023-06-22T02:17:26;16.42;;;15.52;;
20040;SDS011;10181;48.072;9.884;2023-06-22T02:19:51;15.45;;;14.48;;
20040;SDS011;10181;48.072;9.884;2023-06-22T02:22:17;13.07;;;12.25;;
20040;SDS011;10181;48.072;9.884;2023-06-22T02:24:43;13.38;;;12.65;;
20040;SDS011;10181;48.072;9.884;2023-06-22T02:27:09;11.93;;;11.23;;
20040;SDS011;10181;48.072;9.884;2023-06-22T02:29:35;10.32;;;9.77;;
20040;SDS011;10181;48.072;9.884;2023-06-22T02:32:01;9.07;;;8.48;;
20040;SDS011;10181;48.072;9.884;2023-06-22T02:34:27;12.00;;;10.98;;
20040;SDS011;10181;48.072;9.884;2023-06-22T02:36:53;10.18;;;9.65;;
20040;SDS011;10181;48.072;9.884;2023-06-22T02:39:22;11.33;;;10.63;;
20040;SDS011;10181;48.072;9.884;2023-06-22T02:41:49;12.02;;;10.98;;
20040;SDS011;10181;48.072;9.884;2023-06-22T02:44:15;10.40;;;9.90;;
20040;SDS011;10181;48.072;9.884;2023-06-22T02:46:42;13.03;;;12.43;;
20040;SDS011;10181;48.072;9.884;2023-06-22T02:49:07;12.80;;;12.10;;
20040;SDS011;10181;48.072;9.884;2023-06-22T02:51:34;14.40;;;13.60;;
20040;SDS011;10181;48.072;9.884;2023-06-22T02:54:00;13.75;;;12.98;;
20040;SDS011;10181;48.072;9.884;2023-06-22T02:56:25;13.13;;;12.35;;
20040;SDS011;10181;48.072;9.884;2023-06-22T02:58:52;13.90;;;13.02;;
20040;SDS011;10181;48.072;9.884;2023-06-22T03:01:18;13.20;;;12.30;;
20040;SDS011;10181;48.072;9.884;2023-06-22T03:03:49;13.73;;;12.70;;
20040;SDS011;10181;48.072;9.884;2023-06-22T03:06:15;13.38;;;12.68;;
20040;SDS011;10181;48.072;9.884;2023-06-22T03:08:41;13.55;;;12.85;;
20040;SDS011;10181;48.072;9.884;2023-06-22T03:11:07;13.73;;;12.98;;
20040;SDS011;10181;48.072;9.884;2023-06-22T03:13:33;15.23;;;14.32;;
20040;SDS011;10181;48.072;9.884;2023-06-22T03:15:58;16.90;;;16.00;;
20040;SDS011;10181;48.072;9.884;2023-06-22T03:18:24;15.20;;;14.32;;
20040;SDS011;10181;48.072;9.884;2023-06-22T03:20:50;14.80;;;13.97;;
20040;SDS011;10181;48.072;9.884;2023-06-22T03:23:15;15.13;;;14.33;;
20040;SDS011;10181;48.072;9.884;2023-06-22T03:25:42;16.33;;;15.53;;
20040;SDS011;10181;48.072;9.884;2023-06-22T03:28:09;19.43;;;18.30;;
20040;SDS011;10181;48.072;9.884;2023-06-22T03:30:35;14.83;;;14.03;;
20040;SDS011;10181;48.072;9.884;2023-06-22T03:33:01;14.70;;;13.70;;
20040;SDS011;10181;48.072;9.884;2023-06-22T03:35:27;13.80;;;13.00;;
20040;SDS011;10181;48.072;9.884;2023-06-22T03:37:53;13.90;;;13.10;;
20040;SDS011;10181;48.072;9.884;2023-06-22T03:40:18;16.10;;;14.83;;
20040;SDS011;10181;48.072;9.884;2023-06-22T03:42:45;15.13;;;13.93;;
20040;SDS011;10181;48.072;9.884;2023-06-22T03:45:11;13.67;;;12.90;;
20040;SDS011;10181;48.072;9.884;2023-06-22T03:47:36;14.33;;;13.40;;
20040;SDS011;10181;48.072;9.884;2023-06-22T03:50:02;13.70;;;12.97;;
20040;SDS011;10181;48.072;9.884;2023-06-22T03:52:28;14.23;;;13.23;;
20040;SDS011;10181;48.072;9.884;2023-06-22T03:54:55;13.80;;;12.73;;
20040;SDS011;10181;48.072;9.884;2023-06-22T03:57:20;13.23;;;12.37;;
20040;SDS011;10181;48.072;9.884;2023-06-22T03:59:46;14.83;;;13.83;;
20040;SDS011;10181;48.072;9.884;2023-06-22T04:02:12;15.13;;;14.23;;
20040;SDS011;10181;48.072;9.884;2023-06-22T04:04:37;15.05;;;14.23;;
20040;SDS011;10181;48.072;9.884;2023-06-22T04:07:04;15.73;;;14.70;;
20040;SDS011;10181;48.072;9.884;2023-06-22T04:09:30;12.98;;;12.10;;
20040;SDS011;10181;48.072;9.884;2023-06-22T04:11:56;13.27;;;12.43;;
20040;SDS011;10181;48.072;9.884;2023-06-22T04:14:21;14.30;;;13.40;;
20040;SDS011;10181;48.072;9.884;2023-06-22T04:16:47;15.03;;;13.93;;
20040;SDS011;10181;48.072;9.884;2023-06-22T04:19:13;15.73;;;14.70;;
20040;SDS011;10181;48.072;9.884;2023-06-22T04:21:43;21.07;;;19.67;;
20040;SDS011;10181;48.072;9.884;2023-06-22T04:24:09;20.73;;;19.43;;
20040;SDS011;10181;48.072;9.884;2023-06-22T04:26:36;19.73;;;18.70;;
20040;SDS011;10181;48.072;9.884;2023-06-22T04:29:06;22.53;;;21.17;;
20040;SDS011;10181;48.072;9.884;2023-06-22T04:31:33;18.27;;;17.27;;
20040;SDS011;10181;48.072;9.884;2023-06-22T04:34:06;17.10;;;16.10;;
20040;SDS011;10181;48.072;9.884;2023-06-22T04:36:34;17.23;;;16.23;;
20040;SDS011;10181;48.072;9.884;2023-06-22T04:39:04;18.40;;;17.00;;
20040;SDS011;10181;48.072;9.884;2023-06-22T04:41:35;18.85;;;17.48;;
20040;SDS011;10181;48.072;9.884;2023-06-22T04:46:37;19.73;;;18.73;;
20040;SDS011;10181;48.072;9.884;2023-06-22T04:49:06;17.17;;;16.10;;
20040;SDS011;10181;48.072;9.884;2023-06-22T04:51:38;16.50;;;15.30;;
20040;SDS011;10181;48.072;9.884;2023-06-22T04:54:05;16.40;;;15.37;;
20040;SDS011;10181;48.072;9.884;2023-06-22T04:56:32;16.23;;;15.23;;
20040;SDS011;10181;48.072;9.884;2023-06-22T04:58:58;16.13;;;15.00;;
20040;SDS011;10181;48.072;9.884;2023-06-22T05:01:25;17.20;;;16.02;;
20040;SDS011;10181;48.072;9.884;2023-06-22T05:03:51;18.60;;;17.50;;
20040;SDS011;10181;48.072;9.884;2023-06-22T05:06:25;18.42;;;17.08;;
20040;SDS011;10181;48.072;9.884;2023-06-22T05:08:55;17.95;;;16.90;;
20040;SDS011;10181;48.072;9.884;2023-06-22T05:11:25;18.58;;;17.55;;
20040;SDS011;10181;48.072;9.884;2023-06-22T05:13:53;19.95;;;18.75;;
20040;SDS011;10181;48.072;9.884;2023-06-22T05:16:20;23.63;;;21.98;;
20040;SDS011;10181;48.072;9.884;2023-06-22T05:18:52;22.65;;;21.42;;
20040;SDS011;10181;48.072;9.884;2023-06-22T05:21:21;25.23;;;23.67;;
20040;SDS011;10181;48.072;9.884;2023-06-22T05:23:51;27.30;;;25.83;;
20040;SDS011;10181;48.072;9.884;2023-06-22T05:26:18;33.58;;;31.58;;
20040;SDS011;10181;48.072;9.884;2023-06-22T05:28:45;38.47;;;36.50;;
20040;SDS011;10181;48.072;9.884;2023-06-22T05:31:14;43.03;;;40.90;;
20040;SDS011;10181;48.072;9.884;2023-06-22T05:33:41;43.10;;;40.83;;
20040;SDS011;10181;48.072;9.884;2023-06-22T05:36:08;40.33;;;38.38;;
20040;SDS011;10181;48.072;9.884;2023-06-22T05:38:34;36.85;;;34.75;;
20040;SDS011;10181;48.072;9.884;2023-06-22T05:41:00;31.15;;;29.35;;
20040;SDS011;10181;48.072;9.884;2023-06-22T05:43:25;26.88;;;25.50;;
20040;SDS011;10181;48.072;9.884;2023-06-22T05:45:51;26.88;;;25.27;;
20040;SDS011;10181;48.072;9.884;2023-06-22T05:48:17;24.98;;;23.15;;
20040;SDS011;10181;48.072;9.884;2023-06-22T05:50:42;25.13;;;23.58;;
20040;SDS011;10181;48.072;9.884;2023-06-22T05:53:08;26.60;;;25.00;;
20040;SDS011;10181;48.072;9.884;2023-06-22T05:55:34;27.35;;;25.90;;
20040;SDS011;10181;48.072;9.884;2023-06-22T05:57:59;29.25;;;27.65;;
20040;SDS011;10181;48.072;9.884;2023-06-22T06:00:25;29.30;;;27.42;;
20040;SDS011;10181;48.072;9.884;2023-06-22T06:02:51;25.02;;;23.50;;
20040;SDS011;10181;48.072;9.884;2023-06-22T06:05:16;25.05;;;23.75;;
20040;SDS011;10181;48.072;9.884;2023-06-22T06:07:44;24.02;;;22.73;;
20040;SDS011;10181;48.072;9.884;2023-06-22T06:10:11;21.35;;;20.08;;
20040;SDS011;10181;48.072;9.884;2023-06-22T06:12:37;18.13;;;16.92;;
20040;SDS011;10181;48.072;9.884;2023-06-22T06:15:03;12.82;;;12.02;;
20040;SDS011;10181;48.072;9.884;2023-06-22T06:17:29;11.48;;;10.57;;
20040;SDS011;10181;48.072;9.884;2023-06-22T06:19:55;11.30;;;10.32;;
20040;SDS011;10181;48.072;9.884;2023-06-22T06:22:21;11.38;;;10.45;;
20040;SDS011;10181;48.072;9.884;2023-06-22T06:24:48;14.02;;;13.13;;
20040;SDS011;10181;48.072;9.884;2023-06-22T06:27:14;16.17;;;15.15;;
20040;SDS011;10181;48.072;9.884;2023-06-22T06:29:40;11.75;;;10.95;;
20040;SDS011;10181;48.072;9.884;2023-06-22T06:32:06;10.18;;;9.45;;
20040;SDS011;10181;48.072;9.884;2023-06-22T06:34:32;13.23;;;9.98;;
20040;SDS011;10181;48.072;9.884;2023-06-22T06:36:57;10.02;;;9.13;;
20040;SDS011;10181;48.072;9.884;2023-06-22T06:39:23;9.30;;;8.70;;
20040;SDS011;10181;48.072;9.884;2023-06-22T06:41:49;9.93;;;9.13;;
20040;SDS011;10181;48.072;9.884;2023-06-22T06:44:15;10.27;;;9.48;;
20040;SDS011;10181;48.072;9.884;2023-06-22T06:46:41;9.35;;;8.73;;
20040;SDS011;10181;48.072;9.884;2023-06-22T06:49:07;10.52;;;9.85;;
20040;SDS011;10181;48.072;9.884;2023-06-22T06:51:33;11.98;;;11.23;;
20040;SDS011;10181;48.072;9.884;2023-06-22T06:53:59;15.35;;;14.05;;
20040;SDS011;10181;48.072;9.884;2023-06-22T06:56:25;15.20;;;14.13;;
20040;SDS011;10181;48.072;9.884;2023-06-22T06:58:51;14.07;;;13.25;;
20040;SDS011;10181;48.072;9.884;2023-06-22T07:01:16;14.43;;;13.52;;
20040;SDS011;10181;48.072;9.884;2023-06-22T07:03:42;15.18;;;14.07;;
20040;SDS011;10181;48.072;9.884;2023-06-22T07:06:08;15.00;;;14.00;;
20040;SDS011;10181;48.072;9.884;2023-06-22T07:08:34;16.45;;;15.38;;
20040;SDS011;10181;48.072;9.884;2023-06-22T07:11:04;16.67;;;15.48;;
20040;SDS011;10181;48.072;9.884;2023-06-22T07:13:30;20.98;;;19.77;;
20040;SDS011;10181;48.072;9.884;2023-06-22T07:15:56;25.20;;;23.58;;
20040;SDS011;10181;48.072;9.884;2023-06-22T07:18:22;36.38;;;34.25;;
20040;SDS011;10181;48.072;9.884;2023-06-22T07:20:48;35.88;;;34.10;;
20040;SDS011;10181;48.072;9.884;2023-06-22T07:23:14;34.45;;;32.75;;
20040;SDS011;10181;48.072;9.884;2023-06-22T07:25:39;38.17;;;35.83;;
20040;SDS011;10181;48.072;9.884;2023-06-22T07:28:06;35.00;;;33.22;;
20040;SDS011;10181;48.072;9.884;2023-06-22T07:30:33;29.90;;;28.25;;
20040;SDS011;10181;48.072;9.884;2023-06-22T07:32:59;28.67;;;27.08;;
20040;SDS011;10181;48.072;9.884;2023-06-22T07:35:32;33.40;;;31.75;;
20040;SDS011;10181;48.072;9.884;2023-06-22T07:37:58;39.05;;;36.85;;
20040;SDS011;10181;48.072;9.884;2023-06-22T07:40:24;39.97;;;38.20;;
20040;SDS011;10181;48.072;9.884;2023-06-22T07:42:49;46.60;;;44.28;;
20040;SDS011;10181;48.072;9.884;2023-06-22T07:45:17;43.67;;;41.65;;
20040;SDS011;10181;48.072;9.884;2023-06-22T07:47:43;40.65;;;38.67;;
20040;SDS011;10181;48.072;9.884;2023-06-22T07:50:09;32.20;;;30.00;;
20040;SDS011;10181;48.072;9.884;2023-06-22T07:52:35;29.25;;;27.88;;
20040;SDS011;10181;48.072;9.884;2023-06-22T07:55:01;33.40;;;31.70;;
20040;SDS011;10181;48.072;9.884;2023-06-22T07:57:27;34.25;;;32.53;;
20040;SDS011;10181;48.072;9.884;2023-06-22T07:59:59;44.53;;;42.30;;
20040;SDS011;10181;48.072;9.884;2023-06-22T08:02:26;69.72;;;66.40;;
20040;SDS011;10181;48.072;9.884;2023-06-22T08:04:51;50.20;;;47.80;;
20040;SDS011;10181;48.072;9.884;2023-06-22T08:07:17;57.65;;;55.00;;
20040;SDS011;10181;48.072;9.884;2023-06-22T08:09:47;66.25;;;63.25;;
20040;SDS011;10181;48.072;9.884;2023-06-22T08:12:14;82.78;;;79.05;;
20040;SDS011;10181;48.072;9.884;2023-06-22T08:14:41;93.72;;;89.50;;
20040;SDS011;10181;48.072;9.884;2023-06-22T08:17:07;100.47;;;96.40;;
20040;SDS011;10181;48.072;9.884;2023-06-22T08:19:33;112.35;;;107.65;;
20040;SDS011;10181;48.072;9.884;2023-06-22T08:21:58;125.07;;;119.63;;
20040;SDS011;10181;48.072;9.884;2023-06-22T08:24:24;139.13;;;133.52;;
20040;SDS011;10181;48.072;9.884;2023-06-22T08:26:51;136.85;;;131.13;;
20040;SDS011;10181;48.072;9.884;2023-06-22T08:29:17;150.82;;;144.88;;
20040;SDS011;10181;48.072;9.884;2023-06-22T08:31:43;154.35;;;147.95;;
20040;SDS011;10181;48.072;9.884;2023-06-22T08:34:08;155.88;;;149.68;;
20040;SDS011;10181;48.072;9.884;2023-06-22T08:36:34;117.93;;;112.93;;
20040;SDS011;10181;48.072;9.884;2023-06-22T08:39:02;92.05;;;87.82;;
20040;SDS011;10181;48.072;9.884;2023-06-22T08:41:29;65.65;;;62.63;;
20040;SDS011;10181;48.072;9.884;2023-06-22T08:43:54;52.97;;;50.45;;
20040;SDS011;10181;48.072;9.884;2023-06-22T08:46:20;46.05;;;43.85;;
20040;SDS011;10181;48.072;9.884;2023-06-22T08:48:49;45.55;;;43.35;;
20040;SDS011;10181;48.072;9.884;2023-06-22T08:51:15;44.58;;;42.35;;
20040;SDS011;10181;48.072;9.884;2023-06-22T08:53:42;50.60;;;48.15;;
20040;SDS011;10181;48.072;9.884;2023-06-22T08:56:08;60.85;;;57.95;;
20040;SDS011;10181;48.072;9.884;2023-06-22T08:58:33;66.15;;;63.15;;
20040;SDS011;10181;48.072;9.884;2023-06-22T09:00:59;61.20;;;58.30;;
20040;SDS011;10181;48.072;9.884;2023-06-22T09:03:26;51.63;;;49.25;;
20040;SDS011;10181;48.072;9.884;2023-06-22T09:05:52;43.33;;;41.22;;
20040;SDS011;10181;48.072;9.884;2023-06-22T09:08:17;32.65;;;30.90;;
20040;SDS011;10181;48.072;9.884;2023-06-22T09:10:43;29.50;;;27.90;;
20040;SDS011;10181;48.072;9.884;2023-06-22T09:13:09;28.17;;;26.52;;
20040;SDS011;10181;48.072;9.884;2023-06-22T09:15:34;25.10;;;23.83;;
20040;SDS011;10181;48.072;9.884;2023-06-22T09:18:00;27.27;;;25.92;;
20040;SDS011;10181;48.072;9.884;2023-06-22T09:20:26;26.63;;;25.25;;
20040;SDS011;10181;48.072;9.884;2023-06-22T09:22:51;25.42;;;24.17;;
20040;SDS011;10181;48.072;9.884;2023-06-22T09:25:17;23.13;;;21.52;;
20040;SDS011;10181;48.072;9.884;2023-06-22T09:27:45;20.02;;;18.48;;
20040;SDS011;10181;48.072;9.884;2023-06-22T09:30:11;21.60;;;19.58;;
20040;SDS011;10181;48.072;9.884;2023-06-22T09:32:37;19.17;;;17.88;;
20040;SDS011;10181;48.072;9.884;2023-06-22T09:35:04;20.20;;;18.70;;
20040;SDS011;10181;48.072;9.884;2023-06-22T09:37:31;20.02;;;18.17;;
20040;SDS011;10181;48.072;9.884;2023-06-22T09:39:56;24.88;;;23.35;;
20040;SDS011;10181;48.072;9.884;2023-06-22T09:42:22;22.58;;;21.27;;
20040;SDS011;10181;48.072;9.884;2023-06-22T09:44:48;18.75;;;17.60;;
20040;SDS011;10181;48.072;9.884;2023-06-22T09:47:13;18.08;;;16.88;;
20040;SDS011;10181;48.072;9.884;2023-06-22T09:49:39;16.80;;;15.48;;
20040;SDS011;10181;48.072;9.884;2023-06-22T09:52:05;32.17;;;30.27;;
20040;SDS011;10181;48.072;9.884;2023-06-22T09:54:31;25.42;;;23.55;;
20040;SDS011;10181;48.072;9.884;2023-06-22T09:56:56;33.05;;;31.45;;
20040;SDS011;10181;48.072;9.884;2023-06-22T09:59:22;21.45;;;20.15;;
20040;SDS011;10181;48.072;9.884;2023-06-22T10:01:48;35.17;;;33.08;;
20040;SDS011;10181;48.072;9.884;2023-06-22T10:04:13;22.13;;;20.42;;
20040;SDS011;10181;48.072;9.884;2023-06-22T10:06:39;23.60;;;22.30;;
20040;SDS011;10181;48.072;9.884;2023-06-22T10:09:06;27.50;;;25.98;;
20040;SDS011;10181;48.072;9.884;2023-06-22T10:11:32;30.17;;;28.60;;
20040;SDS011;10181;48.072;9.884;2023-06-22T10:14:00;27.40;;;25.50;;
20040;SDS011;10181;48.072;9.884;2023-06-22T10:16:36;29.08;;;27.35;;
20040;SDS011;10181;48.072;9.884;2023-06-22T10:19:01;32.55;;;30.42;;
20040;SDS011;10181;48.072;9.884;2023-06-22T10:21:27;32.90;;;31.10;;
20040;SDS011;10181;48.072;9.884;2023-06-22T10:23:53;32.03;;;30.23;;
20040;SDS011;10181;48.072;9.884;2023-06-22T10:26:20;32.65;;;30.77;;
20040;SDS011;10181;48.072;9.884;2023-06-22T10:28:46;31.38;;;29.75;;
20040;SDS011;10181;48.072;9.884;2023-06-22T10:31:11;33.25;;;31.38;;
20040;SDS011;10181;48.072;9.884;2023-06-22T10:33:37;31.92;;;30.02;;
20040;SDS011;10181;48.072;9.884;2023-06-22T10:36:03;24.75;;;23.20;;
20040;SDS011;10181;48.072;9.884;2023-06-22T10:38:29;23.13;;;21.27;;
20040;SDS011;10181;48.072;9.884;2023-06-22T10:40:55;34.67;;;32.67;;
20040;SDS011;10181;48.072;9.884;2023-06-22T10:43:21;24.70;;;22.98;;
20040;SDS011;10181;48.072;9.884;2023-06-22T10:45:46;28.63;;;27.23;;
20040;SDS011;10181;48.072;9.884;2023-06-22T10:48:12;51.78;;;49.30;;
20040;SDS011;10181;48.072;9.884;2023-06-22T10:50:38;11.55;;;10.75;;
20040;SDS011;10181;48.072;9.884;2023-06-22T10:53:03;46.65;;;44.22;;
20040;SDS011;10181;48.072;9.884;2023-06-22T10:55:29;30.80;;;29.33;;
20040;SDS011;10181;48.072;9.884;2023-06-22T10:57:55;16.00;;;15.00;;
20040;SDS011;10181;48.072;9.884;2023-06-22T11:00:20;11.70;;;10.35;;
20040;SDS011;10181;48.072;9.884;2023-06-22T11:02:46;12.63;;;10.15;;
20040;SDS011;10181;48.072;9.884;2023-06-22T11:05:12;13.45;;;12.73;;
20040;SDS011;10181;48.072;9.884;2023-06-22T11:07:41;12.25;;;11.13;;
20040;SDS011;10181;48.072;9.884;2023-06-22T11:10:08;13.50;;;9.68;;
20040;SDS011;10181;48.072;9.884;2023-06-22T11:12:34;24.42;;;22.52;;
20040;SDS011;10181;48.072;9.884;2023-06-22T11:15:00;34.13;;;32.05;;
20040;SDS011;10181;48.072;9.884;2023-06-22T11:17:26;13.95;;;13.00;;
20040;SDS011;10181;48.072;9.884;2023-06-22T11:19:52;12.93;;;12.07;;
20040;SDS011;10181;48.072;9.884;2023-06-22T11:22:18;14.35;;;13.13;;
20040;SDS011;10181;48.072;9.884;2023-06-22T11:24:43;24.27;;;22.73;;
20040;SDS011;10181;48.072;9.884;2023-06-22T11:27:09;13.40;;;12.50;;
20040;SDS011;10181;48.072;9.884;2023-06-22T11:29:35;14.05;;;13.05;;
20040;SDS011;10181;48.072;9.884;2023-06-22T11:32:01;25.13;;;23.55;;
20040;SDS011;10181;48.072;9.884;2023-06-22T11:34:26;70.95;;;67.55;;
20040;SDS011;10181;48.072;9.884;2023-06-22T11:36:53;65.50;;;62.58;;
20040;SDS011;10181;48.072;9.884;2023-06-22T11:39:18;12.38;;;10.27;;
20040;SDS011;10181;48.072;9.884;2023-06-22T11:41:45;61.40;;;58.55;;
20040;SDS011;10181;48.072;9.884;2023-06-22T11:44:10;77.05;;;73.55;;
20040;SDS011;10181;48.072;9.884;2023-06-22T11:46:36;72.50;;;69.10;;
20040;SDS011;10181;48.072;9.884;2023-06-22T11:49:02;77.72;;;73.93;;
20040;SDS011;10181;48.072;9.884;2023-06-22T11:51:27;73.50;;;70.20;;
20040;SDS011;10181;48.072;9.884;2023-06-22T11:53:56;71.63;;;68.28;;
20040;SDS011;10181;48.072;9.884;2023-06-22T11:56:22;86.68;;;82.68;;
20040;SDS011;10181;48.072;9.884;2023-06-22T11:58:48;80.80;;;77.53;;
20040;SDS011;10181;48.072;9.884;2023-06-22T12:01:14;99.55;;;95.60;;
20040;SDS011;10181;48.072;9.884;2023-06-22T12:03:40;19.42;;;17.92;;
20040;SDS011;10181;48.072;9.884;2023-06-22T12:06:08;18.23;;;17.23;;
20040;SDS011;10181;48.072;9.884;2023-06-22T12:08:34;19.48;;;18.48;;
20040;SDS011;10181;48.072;9.884;2023-06-22T12:11:00;28.30;;;26.40;;
20040;SDS011;10181;48.072;9.884;2023-06-22T12:13:25;93.68;;;89.85;;
20040;SDS011;10181;48.072;9.884;2023-06-22T12:15:51;108.85;;;104.60;;
20040;SDS011;10181;48.072;9.884;2023-06-22T12:18:17;50.08;;;47.47;;
20040;SDS011;10181;48.072;9.884;2023-06-22T12:20:45;52.85;;;50.15;;
20040;SDS011;10181;48.072;9.884;2023-06-22T12:23:11;23.17;;;21.58;;
20040;SDS011;10181;48.072;9.884;2023-06-22T12:25:37;71.78;;;68.72;;
20040;SDS011;10181;48.072;9.884;2023-06-22T12:28:03;70.82;;;67.25;;
20040;SDS011;10181;48.072;9.884;2023-06-22T12:30:29;16.92;;;15.35;;
20040;SDS011;10181;48.072;9.884;2023-06-22T12:32:55;25.92;;;24.25;;
20040;SDS011;10181;48.072;9.884;2023-06-22T12:35:21;72.55;;;69.28;;
20040;SDS011;10181;48.072;9.884;2023-06-22T12:37:47;31.63;;;29.60;;
20040;SDS011;10181;48.072;9.884;2023-06-22T12:40:12;22.88;;;21.25;;
20040;SDS011;10181;48.072;9.884;2023-06-22T12:42:38;35.97;;;33.75;;
20040;SDS011;10181;48.072;9.884;2023-06-22T12:45:05;34.58;;;32.88;;
20040;SDS011;10181;48.072;9.884;2023-06-22T12:47:31;67.75;;;64.80;;
20040;SDS011;10181;48.072;9.884;2023-06-22T12:49:56;14.75;;;13.55;;
20040;SDS011;10181;48.072;9.884;2023-06-22T12:52:22;17.55;;;16.25;;
20040;SDS011;10181;48.072;9.884;2023-06-22T12:54:48;37.72;;;35.90;;
20040;SDS011;10181;48.072;9.884;2023-06-22T12:57:13;22.40;;;21.13;;
20040;SDS011;10181;48.072;9.884;2023-06-22T12:59:39;15.13;;;13.93;;
20040;SDS011;10181;48.072;9.884;2023-06-22T13:02:05;19.60;;;18.30;;
20040;SDS011;10181;48.072;9.884;2023-06-22T13:04:31;19.45;;;18.00;;
20040;SDS011;10181;48.072;9.884;2023-06-22T13:06:56;23.60;;;22.30;;
20040;SDS011;10181;48.072;9.884;2023-06-22T13:09:22;31.73;;;29.77;;
20040;SDS011;10181;48.072;9.884;2023-06-22T13:11:48;25.15;;;23.58;;
20040;SDS011;10181;48.072;9.884;2023-06-22T13:14:13;37.97;;;36.22;;
20040;SDS011;10181;48.072;9.884;2023-06-22T13:16:41;44.00;;;41.97;;
20040;SDS011;10181;48.072;9.884;2023-06-22T13:19:06;39.00;;;37.13;;
20040;SDS011;10181;48.072;9.884;2023-06-22T13:21:32;88.80;;;84.82;;
20040;SDS011;10181;48.072;9.884;2023-06-22T13:23:59;87.05;;;83.22;;
20040;SDS011;10181;48.072;9.884;2023-06-22T13:26:24;92.55;;;88.50;;
20040;SDS011;10181;48.072;9.884;2023-06-22T13:28:50;62.88;;;59.72;;
20040;SDS011;10181;48.072;9.884;2023-06-22T13:31:16;47.65;;;45.33;;
20040;SDS011;10181;48.072;9.884;2023-06-22T13:33:41;36.00;;;33.92;;
20040;SDS011;10181;48.072;9.884;2023-06-22T13:36:09;16.33;;;15.13;;
20040;SDS011;10181;48.072;9.884;2023-06-22T13:38:35;65.25;;;62.28;;
20040;SDS011;10181;48.072;9.884;2023-06-22T13:41:03;49.00;;;46.28;;
20040;SDS011;10181;48.072;9.884;2023-06-22T13:43:29;15.18;;;14.15;;
20040;SDS011;10181;48.072;9.884;2023-06-22T13:45:55;66.65;;;63.65;;
20040;SDS011;10181;48.072;9.884;2023-06-22T13:48:21;48.67;;;46.22;;
20040;SDS011;10181;48.072;9.884;2023-06-22T13:50:48;73.32;;;70.00;;
20040;SDS011;10181;48.072;9.884;2023-06-22T13:53:14;70.60;;;67.57;;
20040;SDS011;10181;48.072;9.884;2023-06-22T13:55:39;65.60;;;62.67;;
20040;SDS011;10181;48.072;9.884;2023-06-22T13:58:06;64.85;;;61.70;;
20040;SDS011;10181;48.072;9.884;2023-06-22T14:00:32;22.08;;;20.38;;
20040;SDS011;10181;48.072;9.884;2023-06-22T14:02:57;17.65;;;16.55;;
20040;SDS011;10181;48.072;9.884;2023-06-22T14:05:23;23.15;;;21.08;;
20040;SDS011;10181;48.072;9.884;2023-06-22T14:07:49;43.85;;;41.65;;
20040;SDS011;10181;48.072;9.884;2023-06-22T14:10:14;15.00;;;13.57;;
20040;SDS011;10181;48.072;9.884;2023-06-22T14:12:40;21.65;;;20.05;;
20040;SDS011;10181;48.072;9.884;2023-06-22T14:15:06;23.33;;;21.80;;
20040;SDS011;10181;48.072;9.884;2023-06-22T14:17:32;22.50;;;21.23;;
20040;SDS011;10181;48.072;9.884;2023-06-22T14:19:57;16.48;;;15.32;;
20040;SDS011;10181;48.072;9.884;2023-06-22T14:22:23;31.00;;;29.27;;
20040;SDS011;10181;48.072;9.884;2023-06-22T14:24:49;16.58;;;15.32;;
20040;SDS011;10181;48.072;9.884;2023-06-22T14:27:15;17.10;;;15.98;;
20040;SDS011;10181;48.072;9.884;2023-06-22T14:29:41;19.23;;;18.13;;
20040;SDS011;10181;48.072;9.884;2023-06-22T14:32:07;17.55;;;16.65;;